Flight Track Log - Related Links

Times and Time Zones

All times are in EDT time to prevent confusion due to time zone crossing. See the SWA1775 flight status page for this flight to view local times or setup timezone preferences in your user account.

Time Position Orientation Groundspeed Altitude Reporting Facility
EDT Latitude Longitude Course Direction KTS MPH feet Rate Location/Type
Sun 08:42:23 AM 28.3570 -81.4040 282° West 270 311 7,000  Level FlightAware ADS-B
Sun 08:42:44 AM 28.3650 -81.4450 283° West 274 315 8,900 2,327 Climbing FlightAware ADS-B
Sun 08:43:12 AM 28.3710 -81.4790 281° West 274 315 8,900 2,800 Level FlightAware ADS-B
Sun 08:43:59 AM 28.3860 -81.5620 282° West 333 383 12,400 3,862 Climbing FlightAware ADS-B
Sun 08:44:39 AM 28.3990 -81.6350 281° West 354 407 14,500 3,385 Climbing FlightAware ADS-B
Sun 08:45:17 AM 28.4130 -81.7040 283° West 361 415 16,800 3,525 Climbing FlightAware ADS-B
Sun 08:45:59 AM 28.4280 -81.7840 282° West 367 422 19,200 3,143 Climbing FlightAware ADS-B
Sun 08:46:41 AM 28.4430 -81.8630 282° West 379 436 21,200 2,786 Climbing FlightAware ADS-B
Sun 08:47:23 AM 28.4590 -81.9440 283° West 389 448 23,100 2,571 Climbing FlightAware ADS-B
Sun 08:48:05 AM 28.4860 -82.0240 291° West 406 467 24,800 2,556 Climbing FlightAware ADS-B
Sun 08:48:17 AM 28.5060 -82.0450 317° Northwest 414 476 25,400 2,250 Climbing FlightAware ADS-B
Sun 08:49:01 AM 28.5830 -82.0820 337° Northwest 428 493 26,900 2,045 Climbing FlightAware ADS-B
Sun 08:49:45 AM 28.6660 -82.1190 339° North 439 505 28,400 1,929 Climbing FlightAware ADS-B
Sun 08:50:25 AM 28.7430 -82.1530 339° North 446 513 29,600 1,725 Climbing FlightAware ADS-B
Sun 08:51:05 AM 28.8210 -82.1880 339° North 454 522 30,700 1,610 Climbing FlightAware ADS-B
Sun 08:51:47 AM 28.9040 -82.2250 339° North 463 533 31,800 1,683 Climbing FlightAware ADS-B
Sun 08:52:27 AM 28.9850 -82.2610 339° North 466 536 33,000 1,841 Climbing FlightAware ADS-B
Sun 08:53:15 AM 29.0790 -82.3020 339° North 462 532 34,500 1,841 Climbing FlightAware ADS-B
Sun 08:53:55 AM 29.1610 -82.3390 338° Northwest 461 531 35,700 1,756 Climbing FlightAware ADS-B
Sun 08:54:37 AM 29.2430 -82.3760 339° North 459 528 36,900 1,756 Climbing FlightAware ADS-B
Sun 08:55:17 AM 29.3230 -82.4110 339° North 454 522 38,100 1,080 Climbing FlightAware ADS-B
Sun 08:56:17 AM 29.4270 -82.4590 338° Northwest 451 519 38,700 383 Climbing FlightAware ADS-B
Sun 08:56:51 AM 29.4820 -82.4850 338° Northwest 451 519 38,700  Level FlightAware ADS-B
Sun 08:57:39 AM 29.5610 -82.5210 338° Northwest 451 519 38,700 886 Level FlightAware ADS-B
Sun 08:58:19 AM 29.6630 -82.5640 340° North 444 511 40,000 1,083 Climbing FlightAware ADS-B
Sun 08:58:51 AM 29.7250 -82.5920 339° North 444 511 40,000  Level FlightAware ADS-B
Sun 08:59:39 AM 29.8030 -82.6280 338° Northwest 444 511 40,000  Level FlightAware ADS-B
Sun 09:00:27 AM 29.9180 -82.6790 339° North 444 511 40,000  Level FlightAware ADS-B
Sun 09:01:05 AM 29.9880 -82.7110 338° Northwest 444 511 40,000  Level FlightAware ADS-B
Sun 09:01:45 AM 30.0530 -82.7410 338° Northwest 444 511 40,000  Level FlightAware ADS-B
Sun 09:02:34 AM 30.1330 -82.7780 338° Northwest 444 511 40,000  Level FlightAware ADS-B
Sun 09:03:11 AM 30.1920 -82.8060 338° Northwest 444 511 40,000  Level FlightAware ADS-B
Sun 09:03:57 AM 30.2670 -82.8410 338° Northwest 444 511 40,000  Level FlightAware ADS-B
Sun 09:04:34 AM 30.3270 -82.8690 338° Northwest 444 511 40,000  Level FlightAware ADS-B
Sun 09:05:30 AM 30.4880 -82.9400 339° North 444 511 40,000  Level FlightAware ADS-B
Sun 09:06:06 AM 30.5470 -82.9670 338° Northwest 444 511 40,000  Level FlightAware ADS-B
Sun 09:06:54 AM 30.6240 -83.0030 338° Northwest 444 511 40,000  Level FlightAware ADS-B
Sun 09:07:30 AM 30.6830 -83.0310 338° Northwest 444 511 40,000  Level FlightAware ADS-B
Sun 09:08:08 AM 30.7980 -83.0820 339° North 442 509 40,000  Level FlightAware ADS-B
Sun 09:08:46 AM 30.8620 -83.1120 338° Northwest 441 507 40,000  Level FlightAware ADS-B
Sun 09:09:55 AM 30.9940 -83.1730 338° Northwest 440 506 40,000  Level FlightAware ADS-B
Sun 09:10:36 AM 31.0770 -83.2110 339° North 438 504 40,000  Level FlightAware ADS-B
Sun 09:11:18 AM 31.1590 -83.2490 338° Northwest 437 503 40,000  Level FlightAware ADS-B
Sun 09:11:56 AM 31.2200 -83.2780 338° Northwest 437 503 40,000  Level FlightAware ADS-B
Sun 09:12:38 AM 31.3080 -83.3190 338° Northwest 434 499 40,000  Level FlightAware ADS-B
Sun 09:13:19 AM 31.3810 -83.3530 338° Northwest 432 497 40,000  Level FlightAware ADS-B
Sun 09:14:00 AM 31.4600 -83.3900 338° Northwest 431 496 40,000  Level FlightAware ADS-B
Sun 09:14:40 AM 31.5350 -83.4260 338° Northwest 433 498 40,000  Level FlightAware ADS-B
Sun 09:15:18 AM 31.5970 -83.4560 338° Northwest 434 499 40,000  Level FlightAware ADS-B
Sun 09:16:04 AM 31.6920 -83.4990 339° North 436 502 40,000  Level FlightAware ADS-B
Sun 09:16:40 AM 31.7590 -83.5310 338° Northwest 439 505 40,000  Level FlightAware ADS-B
Sun 09:17:20 AM 31.8350 -83.5670 338° Northwest 441 507 40,000  Level FlightAware ADS-B
Sun 09:18:02 AM 31.9140 -83.6050 338° Northwest 443 510 40,000  Level FlightAware ADS-B
Sun 09:18:42 AM 31.9920 -83.6410 339° North 445 512 40,000  Level FlightAware ADS-B
Sun 09:19:22 AM 32.0670 -83.6770 338° Northwest 447 514 40,000  Level FlightAware ADS-B
Sun 09:20:32 AM 32.1930 -83.7370 338° Northwest 451 519 40,000  Level FlightAware ADS-B
Sun 09:21:10 AM 32.2760 -83.7770 338° Northwest 451 519 40,000  Level FlightAware ADS-B
Sun 09:21:56 AM 32.3650 -83.8200 338° Northwest 448 516 40,000  Level FlightAware ADS-B
Sun 09:22:52 AM 32.4560 -83.8630 338° Northwest 443 510 40,000  Level FlightAware ADS-B
Sun 09:23:24 AM 32.5320 -83.9000 338° Northwest 443 510 40,000  Level FlightAware ADS-B
Sun 09:24:08 AM 32.6150 -83.9400 338° Northwest 444 511 40,000  Level FlightAware ADS-B
Sun 09:24:50 AM 32.6970 -83.9800 338° Northwest 444 511 40,000  Level FlightAware ADS-B
Sun 09:25:34 AM 32.7780 -84.0190 338° Northwest 444 511 40,000  Level FlightAware ADS-B
Sun 09:26:14 AM 32.8550 -84.0560 338° Northwest 442 509 40,000  Level FlightAware ADS-B
Sun 09:26:54 AM 32.9320 -84.0940 338° Northwest 442 509 40,000  Level FlightAware ADS-B
Sun 09:27:37 AM 33.0150 -84.1340 338° Northwest 441 507 40,000  Level FlightAware ADS-B
Sun 09:28:20 AM 33.0930 -84.1720 338° Northwest 442 509 40,000  Level FlightAware ADS-B
Sun 09:29:04 AM 33.1780 -84.2130 338° Northwest 442 509 40,000  Level FlightAware ADS-B
Sun 09:29:44 AM 33.2540 -84.2510 337° Northwest 441 507 40,000  Level FlightAware ADS-B
Sun 09:30:26 AM 33.3330 -84.2890 338° Northwest 441 507 40,000  Level FlightAware ADS-B
Sun 09:31:08 AM 33.4120 -84.3280 338° Northwest 442 509 40,000  Level FlightAware ADS-B
Sun 09:31:52 AM 33.4950 -84.3690 338° Northwest 441 507 40,000  Level FlightAware ADS-B
Sun 09:32:28 AM 33.5630 -84.4020 338° Northwest 441 507 40,000  Level FlightAware ADS-B
Sun 09:33:08 AM 33.6390 -84.4390 338° Northwest 441 507 40,000  Level FlightAware ADS-B
Sun 09:33:48 AM 33.7170 -84.4740 340° North 440 506 40,000  Level FlightAware ADS-B
Sun 09:34:32 AM 33.7990 -84.5100 340° North 439 505 40,000  Level FlightAware ADS-B
Sun 09:35:16 AM 33.8820 -84.5470 340° North 438 504 40,000  Level FlightAware ADS-B
Sun 09:35:56 AM 33.9600 -84.5820 340° North 436 502 40,000  Level FlightAware ADS-B
Sun 09:36:40 AM 34.0440 -84.6190 340° North 436 502 40,000  Level FlightAware ADS-B
Sun 09:37:14 AM 34.1070 -84.6470 340° North 435 501 40,000 -474 Level FlightAware ADS-B
Sun 09:37:56 AM 34.1860 -84.6820 340° North 443 510 39,400 -878 Descending FlightAware ADS-B
Sun 09:38:36 AM 34.2620 -84.7190 338° Northwest 429 494 38,800 -975 Descending FlightAware ADS-B
Sun 09:39:16 AM 34.3270 -84.7670 329° Northwest 422 486 38,100 -1,000 Descending FlightAware ADS-B
Sun 09:40:00 AM 34.4030 -84.8240 328° Northwest 418 481 37,400 -918 Descending FlightAware ADS-B
Sun 09:40:41 AM 34.4680 -84.8730 328° Northwest 415 478 36,800 -940 Descending FlightAware ADS-B
Sun 09:41:23 AM 34.5350 -84.9240 328° Northwest 408 470 36,100 -977 Descending FlightAware ADS-B
Sun 09:42:07 AM 34.6070 -84.9790 328° Northwest 403 464 35,400 -1,000 Descending FlightAware ADS-B
Sun 09:42:41 AM 34.6590 -85.0180 328° Northwest 397 457 34,800 -1,026 Descending FlightAware ADS-B
Sun 09:43:23 AM 34.7240 -85.0680 328° Northwest 384 442 34,100 -1,000 Descending FlightAware ADS-B
Sun 09:44:05 AM 34.7860 -85.1160 328° Northwest 366 421 33,400 -1,000 Descending FlightAware ADS-B
Sun 09:44:41 AM 34.8360 -85.1550 327° Northwest 360 414 32,800 -1,013 Descending FlightAware ADS-B
Sun 09:45:22 AM 34.8940 -85.1990 328° Northwest 360 414 32,100 -1,024 Descending FlightAware ADS-B
Sun 09:46:03 AM 34.9510 -85.2440 327° Northwest 360 414 31,400 -988 Descending FlightAware ADS-B
Sun 09:46:47 AM 35.0140 -85.2930 328° Northwest 358 412 30,700 -1,023 Descending FlightAware ADS-B
Sun 09:47:31 AM 35.0750 -85.3410 327° Northwest 360 414 29,900 -1,286 Descending FlightAware ADS-B
Sun 09:48:11 AM 35.1300 -85.3830 328° Northwest 355 409 28,900 -1,671 Descending FlightAware ADS-B
Sun 09:48:50 AM 35.1800 -85.4320 321° Northwest 343 395 27,700 -1,891 Descending FlightAware ADS-B
Sun 09:49:43 AM 35.2370 -85.5060 313° West 338 389 26,000 -1,871 Descending FlightAware ADS-B
Sun 09:50:23 AM 35.2810 -85.5610 314° West 345 397 24,800 -1,929 Descending FlightAware ADS-B
Sun 09:51:07 AM 35.3290 -85.6230 314° West 342 394 23,300 -1,929 Descending FlightAware ADS-B
Sun 09:51:47 AM 35.3730 -85.6790 314° West 338 389 22,100 -1,857 Descending FlightAware ADS-B
Sun 09:52:31 AM 35.4190 -85.7390 313° West 330 380 20,700 -1,829 Descending FlightAware ADS-B
Sun 09:53:09 AM 35.4580 -85.7890 314° West 322 371 19,600 -1,800 Descending FlightAware ADS-B
Sun 09:53:51 AM 35.5020 -85.8450 314° West 311 358 18,300 -1,884 Descending FlightAware ADS-B
Sun 09:54:35 AM 35.5450 -85.9010 313° West 307 353 16,900 -1,884 Descending FlightAware ADS-B
Sun 09:55:17 AM 35.5860 -85.9550 313° West 304 350 15,600 -1,735 Descending FlightAware ADS-B
Sun 09:55:58 AM 35.6210 -86.0020 313° West 300 345 14,500 -1,674 Descending FlightAware ADS-B
Sun 09:56:43 AM 35.6610 -86.0560 312° West 297 342 13,200 -1,800 Descending FlightAware ADS-B
Sun 09:57:18 AM 35.6960 -86.1030 313° West 294 338 12,100 -1,725 Descending FlightAware ADS-B
Sun 09:58:03 AM 35.7360 -86.1610 310° West 284 327 10,900 -1,429 Descending FlightAware ADS-B
Sun 09:58:42 AM 35.7620 -86.2090 304° West 272 313 10,100 -1,200 Descending FlightAware ADS-B
Sun 09:59:08 AM 35.7800 -86.2430 303° West 257 296 9,600 -1,463 Descending FlightAware ADS-B
Sun 09:59:23 AM 35.7890 -86.2600 303° West 262 302 9,100 -1,950 Descending FlightAware ADS-B
Sun 09:59:48 AM 35.8060 -86.2930 302° West 266 306 8,300 -1,680 Descending FlightAware ADS-B
Sun 10:00:13 AM 35.8230 -86.3240 304° West 262 302 7,700 -1,440 Descending FlightAware ADS-B
Sun 10:00:38 AM 35.8400 -86.3560 303° West 256 295 7,100 -1,556 Descending FlightAware ADS-B
Sun 10:01:07 AM 35.8590 -86.3920 303° West 254 292 6,300 -1,650 Descending FlightAware ADS-B
Sun 10:01:18 AM 35.8660 -86.4050 304° West 253 291 6,000 -1,650 Descending FlightAware ADS-B
Sun 10:01:47 AM 35.8830 -86.4390 302° West 255 293 5,200 -1,636 Descending FlightAware ADS-B
Sun 10:02:13 AM 35.9000 -86.4720 302° West 256 295 4,500 -1,393 Descending FlightAware ADS-B
Sun 10:02:43 AM 35.9190 -86.5080 303° West 262 302 3,900 -800 Descending FlightAware ADS-B
Sun 10:02:58 AM 35.9290 -86.5260 304° West 262 302 3,900 -522 Level FlightAware ADS-B
Sun 10:03:29 AM 35.9490 -86.5640 303° West 260 299 3,500 -873 Descending FlightAware ADS-B
Sun 10:03:53 AM 35.9650 -86.5960 302° West 249 287 3,100 -625 Descending FlightAware ADS-B
Sun 10:04:17 AM 35.9810 -86.6250 304° West 231 266 3,000 -545 Descending FlightAware ADS-B
Sun 10:04:48 AM 35.9970 -86.6550 303° West 216 249 2,600 -800 Descending FlightAware ADS-B
Sun 10:05:02 AM 36.0060 -86.6680 311° West 213 245 2,400 -400 Descending FlightAware ADS-B
Sun 10:05:18 AM 36.0180 -86.6780 326° Northwest 186 214 2,400 -333 Level FlightAware ADS-B
Sun 10:05:38 AM 36.0330 -86.6850 339° North 161 185 2,200 -686 Descending FlightAware ADS-B
Sun 10:05:53 AM 36.0420 -86.6880 345° North 147 169 2,000 -733 Descending FlightAware ADS-B
Sun 10:07:08 AM 36.0853 -86.6792 345° North 136 157 1,100 -667 Descending Memphis Center
Sun 10:08:08 AM 36.1161 -86.6650 20° North 136 157 500 4,450 Descending Memphis Center
Sun 10:09:08 AM 36.1556 -86.6606 North 136 157 10,000 9,500 Climbing Memphis Center

Login

Don't have an account? Register now (free) for customized features, flight alerts, and more!